Back to Top

Language: 

My Weather Underground Personal Weather Station Historical Data with Graphs...

Delerius Weather Station Historical Data
Daily Summary for March 2, 2017 Units:  English    Metric   Both
« Previous Day
Next Day »
Daily Weekly Monthly Yearly Custom
  High: Low: Average:
Temperature: 48.5 °F 36.0 °F 41.9 °F
Dew Point: 40.9 °F 31.4 °F 35.9 °F
Humidity: 95 % 62 % 80 %
Wind Speed: 19.0 mph 0.0 mph 9.8 mph
Wind Gust: 27.0 mph - -
Wind:- - West
Pressure: 29.78 in 29.34 in -
Precipitation: 0.09 in    
Historical Graphs
 
 
Tabular Data for March 2, 2017
Time Temperature Dew Point Pressure Wind Wind Speed Wind Gust Humidity Rainfall Rate (Hourly) solar Conditions
00:00 38.7 °F 36.3 °F 29.34 in West 9.0 mph 9.0 mph 91 % 0.00 in 0 W/m2
00:05 38.6 °F 35.9 °F 29.34 in WNW 9.0 mph 9.0 mph 90 % 0.00 in 0 W/m2
00:15 38.5 °F 35.8 °F 29.35 in West 6.0 mph 7.0 mph 90 % 0.00 in 0 W/m2
00:20 38.5 °F 35.8 °F 29.35 in West 6.0 mph 9.0 mph 90 % 0.00 in 0 W/m2
00:25 38.4 °F 35.7 °F 29.35 in WNW 8.0 mph 9.0 mph 90 % 0.00 in 0 W/m2
00:30 38.3 °F 35.6 °F 29.35 in WNW 9.0 mph 11.0 mph 90 % 0.00 in 0 W/m2
00:35 38.2 °F 35.5 °F 29.35 in WSW 8.0 mph 11.0 mph 90 % 0.00 in 0 W/m2
00:40 38.2 °F 35.5 °F 29.36 in West 10.0 mph 12.0 mph 90 % 0.00 in 0 W/m2
00:50 38.1 °F 35.4 °F 29.36 in West 9.0 mph 12.0 mph 90 % 0.00 in 0 W/m2
00:55 37.9 °F 35.2 °F 29.36 in SW 9.0 mph 12.0 mph 90 % 0.00 in 0 W/m2
01:00 37.7 °F 35.3 °F 29.36 in SW 10.0 mph 10.0 mph 91 % 0.00 in 0 W/m2
01:10 37.5 °F 35.1 °F 29.36 in SW 8.0 mph 16.0 mph 91 % 0.00 in 0 W/m2
01:15 37.4 °F 35.0 °F 29.36 in SW 9.0 mph 16.0 mph 91 % 0.00 in 0 W/m2
01:25 37.0 °F 34.6 °F 29.36 in WSW 11.0 mph 19.0 mph 91 % 0.06 in 0 W/m2
01:30 36.8 °F 34.7 °F 29.36 in WSW 12.0 mph 16.0 mph 92 % 0.06 in 0 W/m2
01:35 36.6 °F 34.5 °F 29.36 in WSW 11.0 mph 16.0 mph 92 % 0.07 in 0 W/m2
01:40 36.5 °F 34.4 °F 29.36 in West 11.0 mph 16.0 mph 92 % 0.07 in 0 W/m2
01:45 36.3 °F 34.5 °F 29.36 in SW 11.0 mph 16.0 mph 93 % 0.14 in 0 W/m2
01:55 36.1 °F 34.3 °F 29.36 in WSW 11.0 mph 16.0 mph 93 % 0.10 in 0 W/m2
02:00 36.0 °F 34.2 °F 29.36 in WSW 12.0 mph 12.0 mph 93 % 0.07 in 0 W/m2
02:05 36.0 °F 34.2 °F 29.37 in West 12.0 mph 16.0 mph 93 % 0.06 in 0 W/m2
02:10 36.1 °F 34.5 °F 29.37 in West 11.0 mph 11.0 mph 94 % 0.06 in 0 W/m2
02:15 36.1 °F 34.5 °F 29.37 in West 11.0 mph 12.0 mph 94 % 0.05 in 0 W/m2
02:20 36.3 °F 34.7 °F 29.38 in WNW 11.0 mph 16.0 mph 94 % 0.09 in 0 W/m2
02:30 36.9 °F 35.3 °F 29.39 in West 12.0 mph 12.0 mph 94 % 0.06 in 0 W/m2
02:40 37.0 °F 35.4 °F 29.39 in West 11.0 mph 16.0 mph 94 % 0.04 in 0 W/m2
02:45 37.0 °F 35.4 °F 29.40 in West 11.0 mph 16.0 mph 94 % 0.04 in 0 W/m2
02:50 36.9 °F 35.3 °F 29.40 in West 10.0 mph 16.0 mph 94 % 0.04 in 0 W/m2
02:55 36.9 °F 35.3 °F 29.40 in WNW 9.0 mph 16.0 mph 94 % 0.00 in 0 W/m2
03:05 36.8 °F 35.2 °F 29.40 in West 8.0 mph 16.0 mph 94 % 0.00 in 0 W/m2
03:10 36.9 °F 35.3 °F 29.41 in West 7.0 mph 7.0 mph 94 % 0.00 in 0 W/m2
03:15 36.9 °F 35.3 °F 29.41 in West 4.0 mph 16.0 mph 94 % 0.00 in 0 W/m2
03:20 36.9 °F 35.3 °F 29.41 in West 4.0 mph 16.0 mph 94 % 0.00 in 0 W/m2
03:30 37.2 °F 35.9 °F 29.40 in West 6.0 mph 16.0 mph 95 % 0.00 in 0 W/m2
03:35 37.3 °F 35.7 °F 29.40 in WNW 6.0 mph 16.0 mph 94 % 0.00 in 0 W/m2
03:45 37.4 °F 35.8 °F 29.41 in West 7.0 mph 8.0 mph 94 % 0.00 in 0 W/m2
03:50 37.5 °F 35.9 °F 29.41 in WNW 7.0 mph 7.0 mph 94 % 0.00 in 0 W/m2
03:55 37.6 °F 36.0 °F 29.41 in West 7.0 mph 8.0 mph 94 % 0.00 in 0 W/m2
04:00 37.6 °F 36.0 °F 29.41 in West 9.0 mph 9.0 mph 94 % 0.00 in 0 W/m2
04:10 37.7 °F 36.1 °F 29.41 in WSW 10.0 mph 18.0 mph 94 % 0.00 in 0 W/m2
04:15 37.7 °F 36.1 °F 29.41 in West 10.0 mph 18.0 mph 94 % 0.00 in 0 W/m2
04:20 37.7 °F 36.1 °F 29.41 in West 10.0 mph 16.0 mph 94 % 0.00 in 0 W/m2
04:25 37.8 °F 36.2 °F 29.42 in West 11.0 mph 16.0 mph 94 % 0.00 in 0 W/m2
04:30 38.0 °F 36.4 °F 29.42 in WSW 11.0 mph 11.0 mph 94 % 0.00 in 0 W/m2
04:35 38.2 °F 36.4 °F 29.42 in West 10.0 mph 13.0 mph 93 % 0.00 in 0 W/m2
04:45 38.5 °F 36.4 °F 29.42 in WSW 12.0 mph 12.0 mph 92 % 0.00 in 0 W/m2
04:50 38.5 °F 36.4 °F 29.43 in West 12.0 mph 16.0 mph 92 % 0.00 in 0 W/m2
04:55 38.5 °F 36.4 °F 29.43 in West 12.0 mph 16.0 mph 92 % 0.00 in 0 W/m2
05:05 38.6 °F 36.2 °F 29.43 in WSW 12.0 mph 16.0 mph 91 % 0.00 in 0 W/m2
05:10 38.7 °F 36.3 °F 29.43 in WNW 11.0 mph 16.0 mph 91 % 0.00 in 0 W/m2
05:20 38.8 °F 36.4 °F 29.44 in WSW 11.0 mph 11.0 mph 91 % 0.00 in 0 W/m2
05:25 38.9 °F 36.2 °F 29.44 in West 11.0 mph 16.0 mph 90 % 0.00 in 0 W/m2
05:30 39.0 °F 36.3 °F 29.44 in West 11.0 mph 16.0 mph 90 % 0.00 in 0 W/m2
05:35 39.0 °F 36.3 °F 29.45 in WSW 12.0 mph 16.0 mph 90 % 0.00 in 0 W/m2
05:40 39.1 °F 36.4 °F 29.45 in WSW 13.0 mph 13.0 mph 90 % 0.00 in 0 W/m2
05:55 39.1 °F 36.4 °F 29.45 in WSW 11.0 mph 13.0 mph 90 % 0.00 in 0 W/m2
06:00 39.0 °F 36.3 °F 29.46 in West 11.0 mph 11.0 mph 90 % 0.00 in 0 W/m2
06:05 39.0 °F 36.3 °F 29.46 in WNW 10.0 mph 16.0 mph 90 % 0.00 in 0 W/m2
06:10 38.9 °F 36.5 °F 29.47 in West 11.0 mph 16.0 mph 91 % 0.00 in 0 W/m2
06:15 38.9 °F 36.5 °F 29.47 in NW 10.0 mph 16.0 mph 91 % 0.00 in 0 W/m2
06:25 38.7 °F 36.3 °F 29.48 in SW 9.0 mph 16.0 mph 91 % 0.00 in 0 W/m2
06:30 38.5 °F 36.1 °F 29.48 in WSW 8.0 mph 16.0 mph 91 % 0.00 in 0 W/m2
06:35 38.5 °F 36.1 °F 29.48 in West 8.0 mph 16.0 mph 91 % 0.00 in 0 W/m2
06:45 38.3 °F 35.9 °F 29.48 in West 7.0 mph 16.0 mph 91 % 0.00 in 0 W/m2
06:50 38.2 °F 35.8 °F 29.49 in WNW 7.0 mph 16.0 mph 91 % 0.00 in 0 W/m2
07:00 38.1 °F 35.7 °F 29.49 in West 8.0 mph 8.0 mph 91 % 0.00 in 11 W/m2
07:05 38.1 °F 36.0 °F 29.50 in NW 9.0 mph 9.0 mph 92 % 0.00 in 14 W/m2
07:10 38.2 °F 36.1 °F 29.50 in West 11.0 mph 11.0 mph 92 % 0.00 in 25 W/m2
07:15 38.3 °F 36.2 °F 29.50 in WNW 12.0 mph 12.0 mph 92 % 0.00 in 21 W/m2
07:20 38.3 °F 36.2 °F 29.51 in West 12.0 mph 16.0 mph 92 % 0.00 in 39 W/m2
07:30 38.5 °F 36.4 °F 29.52 in West 13.0 mph 13.0 mph 92 % 0.00 in 28 W/m2
07:35 38.5 °F 36.4 °F 29.52 in WNW 14.0 mph 14.0 mph 92 % 0.00 in 28 W/m2
07:40 38.5 °F 36.4 °F 29.53 in WNW 14.0 mph 14.0 mph 92 % 0.00 in 28 W/m2
07:45 38.5 °F 36.1 °F 29.54 in West 14.0 mph 16.0 mph 91 % 0.00 in 32 W/m2
07:50 38.5 °F 36.4 °F 29.54 in WNW 12.0 mph 16.0 mph 92 % 0.00 in 39 W/m2
07:55 38.7 °F 36.6 °F 29.55 in WNW 11.0 mph 16.0 mph 92 % 0.00 in 42 W/m2
08:05 39.3 °F 37.4 °F 29.55 in West 12.0 mph 16.0 mph 93 % 0.00 in 183 W/m2
08:15 40.0 °F 38.1 °F 29.57 in WNW 10.0 mph 16.0 mph 93 % 0.00 in 93 W/m2
08:20 40.2 °F 38.1 °F 29.57 in WNW 9.0 mph 20.0 mph 92 % 0.00 in 84 W/m2
08:25 40.4 °F 38.3 °F 29.57 in West 12.0 mph 20.0 mph 92 % 0.00 in 98 W/m2
08:30 40.6 °F 38.5 °F 29.58 in West 12.0 mph 12.0 mph 92 % 0.00 in 56 W/m2
08:40 40.6 °F 38.2 °F 29.59 in West 11.0 mph 11.0 mph 91 % 0.00 in 44 W/m2
08:45 40.5 °F 37.8 °F 29.60 in West 12.0 mph 12.0 mph 90 % 0.00 in 51 W/m2
08:50 40.4 °F 37.7 °F 29.60 in WNW 13.0 mph 13.0 mph 90 % 0.00 in 100 W/m2
08:55 40.6 °F 37.9 °F 29.61 in West 14.0 mph 14.0 mph 90 % 0.00 in 100 W/m2
09:00 40.6 °F 37.6 °F 29.61 in West 15.0 mph 15.0 mph 89 % 0.00 in 91 W/m2
09:10 41.2 °F 38.2 °F 29.62 in WNW 13.0 mph 13.0 mph 89 % 0.00 in 311 W/m2
09:15 41.8 °F 38.5 °F 29.62 in WNW 12.0 mph 16.0 mph 88 % 0.00 in 327 W/m2
09:20 42.4 °F 38.8 °F 29.63 in WNW 12.0 mph 12.0 mph 87 % 0.00 in 332 W/m2
09:25 42.8 °F 38.9 °F 29.63 in West 13.0 mph 14.0 mph 86 % 0.00 in 336 W/m2
09:35 43.5 °F 39.3 °F 29.64 in NW 11.0 mph 16.0 mph 85 % 0.00 in 366 W/m2
09:40 43.8 °F 39.3 °F 29.65 in WNW 13.0 mph 13.0 mph 84 % 0.00 in 438 W/m2
09:50 44.3 °F 39.5 °F 29.66 in WNW 12.0 mph 12.0 mph 83 % 0.00 in 408 W/m2
09:55 44.6 °F 39.4 °F 29.66 in West 12.0 mph 15.0 mph 82 % 0.00 in 396 W/m2
10:00 44.8 °F 39.6 °F 29.66 in West 11.0 mph 11.0 mph 82 % 0.00 in 146 W/m2
10:05 44.6 °F 39.1 °F 29.66 in WNW 11.0 mph 14.0 mph 81 % 0.00 in 83 W/m2
10:10 44.1 °F 39.3 °F 29.67 in WNW 11.0 mph 18.0 mph 83 % 0.00 in 77 W/m2
10:20 42.4 °F 38.5 °F 29.67 in NW 10.0 mph 10.0 mph 86 % 0.00 in 100 W/m2
10:25 41.8 °F 38.5 °F 29.68 in NW 8.0 mph 16.0 mph 88 % 0.00 in 88 W/m2
10:30 41.6 °F 38.6 °F 29.68 in WNW 7.0 mph 7.0 mph 89 % 0.00 in 153 W/m2
10:35 41.9 °F 39.2 °F 29.68 in West 7.0 mph 16.0 mph 90 % 0.00 in 86 W/m2
10:40 42.1 °F 39.4 °F 29.68 in West 7.0 mph 16.0 mph 90 % 0.00 in 561 W/m2
10:50 43.6 °F 40.9 °F 29.68 in WNW 5.0 mph 5.0 mph 90 % 0.00 in 506 W/m2
10:55 44.2 °F 40.9 °F 29.68 in NW 6.0 mph 8.0 mph 88 % 0.00 in 599 W/m2
11:00 44.8 °F 40.6 °F 29.68 in NW 9.0 mph 9.0 mph 85 % 0.00 in 181 W/m2
11:05 45.3 °F 40.7 °F 29.68 in NNW 10.0 mph 10.0 mph 84 % 0.00 in 499 W/m2
11:15 46.0 °F 39.5 °F 29.68 in West 10.0 mph 16.0 mph 78 % 0.00 in 211 W/m2
11:25 45.5 °F 38.7 °F 29.70 in NW 13.0 mph 16.0 mph 77 % 0.00 in 130 W/m2
11:30 45.3 °F 38.5 °F 29.70 in NW 13.0 mph 13.0 mph 77 % 0.00 in 100 W/m2
11:35 45.5 °F 39.4 °F 29.70 in West 13.0 mph 16.0 mph 79 % 0.00 in 557 W/m2
11:40 45.8 °F 39.3 °F 29.70 in WNW 12.0 mph 16.0 mph 78 % 0.00 in 557 W/m2
11:45 46.2 °F 39.4 °F 29.70 in West 13.0 mph 16.0 mph 77 % 0.00 in 332 W/m2
11:50 46.4 °F 39.2 °F 29.70 in West 13.0 mph 13.0 mph 76 % 0.00 in 431 W/m2
12:00 46.6 °F 39.1 °F 29.71 in WNW 18.0 mph 18.0 mph 75 % 0.00 in 281 W/m2
12:05 46.8 °F 38.9 °F 29.71 in West 18.0 mph 18.0 mph 74 % 0.00 in 580 W/m2
12:10 46.9 °F 39.0 °F 29.71 in West 19.0 mph 22.0 mph 74 % 0.00 in 563 W/m2
12:15 47.2 °F 39.7 °F 29.71 in West 17.0 mph 22.0 mph 75 % 0.00 in 541 W/m2
12:20 47.4 °F 39.2 °F 29.71 in West 15.0 mph 20.0 mph 73 % 0.00 in 543 W/m2
12:30 47.0 °F 39.1 °F 29.71 in WNW 17.0 mph 17.0 mph 74 % 0.00 in 195 W/m2
12:35 46.7 °F 38.9 °F 29.71 in WSW 15.0 mph 17.0 mph 74 % 0.00 in 638 W/m2
12:45 47.1 °F 39.2 °F 29.72 in WSW 16.0 mph 20.0 mph 74 % 0.00 in 538 W/m2
12:50 47.1 °F 38.2 °F 29.71 in WNW 18.0 mph 22.0 mph 71 % 0.00 in 487 W/m2
12:55 47.4 °F 38.5 °F 29.71 in West 18.0 mph 22.0 mph 71 % 0.00 in 540 W/m2
13:00 47.6 °F 38.3 °F 29.72 in West 17.0 mph 17.0 mph 70 % 0.00 in 536 W/m2
13:05 47.7 °F 38.0 °F 29.71 in WNW 17.0 mph 18.0 mph 69 % 0.00 in 533 W/m2
13:10 47.9 °F 38.2 °F 29.71 in WNW 16.0 mph 16.0 mph 69 % 0.00 in 529 W/m2
13:15 48.0 °F 38.3 °F 29.71 in WSW 15.0 mph 16.0 mph 69 % 0.00 in 531 W/m2
13:20 48.1 °F 38.8 °F 29.72 in West 16.0 mph 27.0 mph 70 % 0.00 in 540 W/m2
13:25 47.2 °F 38.6 °F 29.71 in West 19.0 mph 27.0 mph 72 % 0.00 in 461 W/m2
13:30 46.9 °F 39.0 °F 29.71 in WNW 18.0 mph 18.0 mph 74 % 0.00 in 482 W/m2
13:40 47.5 °F 40.0 °F 29.71 in West 13.0 mph 13.0 mph 75 % 0.00 in 559 W/m2
13:45 47.5 °F 40.0 °F 29.71 in WNW 17.0 mph 22.0 mph 75 % 0.00 in 485 W/m2
13:50 47.4 °F 39.9 °F 29.71 in WNW 18.0 mph 22.0 mph 75 % 0.00 in 499 W/m2
14:00 47.7 °F 39.5 °F 29.71 in West 18.0 mph 21.0 mph 73 % 0.00 in 473 W/m2
14:05 47.8 °F 38.8 °F 29.71 in West 18.0 mph 21.0 mph 71 % 0.00 in 462 W/m2
14:15 48.2 °F 39.2 °F 29.71 in West 16.0 mph 18.0 mph 71 % 0.00 in 441 W/m2
14:20 48.1 °F 38.4 °F 29.71 in WNW 17.0 mph 17.0 mph 69 % 0.00 in 448 W/m2
14:25 48.1 °F 38.4 °F 29.72 in WNW 17.0 mph 21.0 mph 69 % 0.00 in 432 W/m2
14:30 48.2 °F 37.8 °F 29.72 in WNW 16.0 mph 22.0 mph 67 % 0.00 in 418 W/m2
14:35 48.4 °F 37.9 °F 29.72 in WNW 16.0 mph 22.0 mph 67 % 0.00 in 411 W/m2
14:45 48.4 °F 37.6 °F 29.72 in West 17.0 mph 25.0 mph 66 % 0.00 in 352 W/m2
14:50 48.5 °F 37.3 °F 29.73 in West 13.0 mph 13.0 mph 65 % 0.00 in 364 W/m2
14:55 48.5 °F 37.3 °F 29.73 in West 11.0 mph 18.0 mph 65 % 0.00 in 294 W/m2
15:00 48.5 °F 37.3 °F 29.73 in WNW 11.0 mph 16.0 mph 65 % 0.00 in 308 W/m2
15:05 48.4 °F 36.4 °F 29.73 in West 12.0 mph 16.0 mph 63 % 0.00 in 353 W/m2
15:10 48.4 °F 36.8 °F 29.74 in West 12.0 mph 16.0 mph 64 % 0.00 in 330 W/m2
15:20 48.2 °F 36.6 °F 29.74 in West 12.0 mph 16.0 mph 64 % 0.00 in 250 W/m2
15:25 48.0 °F 36.8 °F 29.74 in SW 13.0 mph 16.0 mph 65 % 0.00 in 269 W/m2
15:35 47.9 °F 36.3 °F 29.75 in WNW 10.0 mph 16.0 mph 64 % 0.00 in 230 W/m2
15:40 48.0 °F 36.4 °F 29.75 in WNW 8.0 mph 8.0 mph 64 % 0.00 in 244 W/m2
15:45 47.9 °F 35.9 °F 29.75 in WSW 8.0 mph 16.0 mph 63 % 0.00 in 206 W/m2
15:55 47.1 °F 35.5 °F 29.75 in WSW 9.0 mph 16.0 mph 64 % 0.00 in 176 W/m2
16:00 47.0 °F 35.8 °F 29.75 in West 7.0 mph 7.0 mph 65 % 0.00 in 151 W/m2
16:05 46.8 °F 35.6 °F 29.75 in SW 6.0 mph 16.0 mph 65 % 0.00 in 79 W/m2
16:10 46.6 °F 35.8 °F 29.75 in WSW 5.0 mph 16.0 mph 66 % 0.00 in 46 W/m2
16:15 46.3 °F 35.6 °F 29.75 in West 6.0 mph 16.0 mph 66 % 0.00 in 44 W/m2
16:25 45.9 °F 35.6 °F 29.75 in SW 8.0 mph 11.0 mph 67 % 0.00 in 63 W/m2
16:30 45.7 °F 35.4 °F 29.75 in WSW 9.0 mph 9.0 mph 67 % 0.00 in 62 W/m2
16:35 45.6 °F 35.3 °F 29.75 in SW 10.0 mph 10.0 mph 67 % 0.00 in 65 W/m2
16:40 45.5 °F 35.2 °F 29.75 in SW 10.0 mph 16.0 mph 67 % 0.00 in 70 W/m2
16:45 45.4 °F 34.7 °F 29.75 in SW 11.0 mph 16.0 mph 66 % 0.00 in 70 W/m2
16:50 45.4 °F 34.3 °F 29.75 in SW 11.0 mph 11.0 mph 65 % 0.00 in 46 W/m2
17:00 45.1 °F 33.6 °F 29.75 in WSW 9.0 mph 16.0 mph 64 % 0.00 in 19 W/m2
17:10 44.7 °F 32.5 °F 29.75 in West 13.0 mph 16.0 mph 62 % 0.00 in 14 W/m2
17:15 44.6 °F 32.8 °F 29.76 in West 12.0 mph 16.0 mph 63 % 0.00 in 12 W/m2
17:20 44.4 °F 32.6 °F 29.76 in WSW 10.0 mph 16.0 mph 63 % 0.00 in 11 W/m2
17:25 44.3 °F 32.5 °F 29.76 in West 11.0 mph 20.0 mph 63 % 0.00 in 9 W/m2
17:35 44.1 °F 32.7 °F 29.76 in WSW 11.0 mph 16.0 mph 64 % 0.00 in 7 W/m2
17:40 43.9 °F 32.5 °F 29.77 in West 11.0 mph 11.0 mph 64 % 0.00 in 5 W/m2
17:45 43.8 °F 32.8 °F 29.76 in WSW 12.0 mph 12.0 mph 65 % 0.00 in 0 W/m2
17:50 43.6 °F 33.0 °F 29.76 in West 11.0 mph 11.0 mph 66 % 0.00 in 0 W/m2
17:55 43.4 °F 32.8 °F 29.76 in WSW 9.0 mph 16.0 mph 66 % 0.00 in 0 W/m2
18:00 43.4 °F 33.2 °F 29.76 in WSW 9.0 mph 9.0 mph 67 % 0.00 in 0 W/m2
18:05 43.2 °F 33.0 °F 29.76 in WSW 8.0 mph 16.0 mph 67 % 0.00 in 0 W/m2
18:10 43.2 °F 33.3 °F 29.77 in West 7.0 mph 16.0 mph 68 % 0.00 in 0 W/m2
18:15 43.1 °F 33.3 °F 29.77 in WSW 7.0 mph 16.0 mph 68 % 0.00 in 0 W/m2
18:20 43.0 °F 33.2 °F 29.77 in WSW 7.0 mph 7.0 mph 68 % 0.00 in 0 W/m2
18:25 43.0 °F 33.5 °F 29.78 in SW 6.0 mph 13.0 mph 69 % 0.00 in 0 W/m2
18:30 42.9 °F 33.1 °F 29.78 in SW 8.0 mph 8.0 mph 68 % 0.00 in 0 W/m2
18:40 42.9 °F 33.1 °F 29.77 in WSW 8.0 mph 16.0 mph 68 % 0.00 in 0 W/m2
18:45 42.8 °F 32.6 °F 29.77 in WSW 8.0 mph 16.0 mph 67 % 0.00 in 0 W/m2
18:55 42.6 °F 32.4 °F 29.77 in SW 8.0 mph 16.0 mph 67 % 0.00 in 0 W/m2
19:00 42.6 °F 32.4 °F 29.77 in WSW 8.0 mph 8.0 mph 67 % 0.00 in 0 W/m2
19:05 42.6 °F 32.4 °F 29.77 in WSW 8.0 mph 16.0 mph 67 % 0.00 in 0 W/m2
19:15 42.4 °F 32.2 °F 29.77 in SW 8.0 mph 16.0 mph 67 % 0.00 in 0 W/m2
19:20 42.3 °F 32.1 °F 29.76 in SW 7.0 mph 7.0 mph 67 % 0.00 in 0 W/m2
19:25 42.3 °F 32.1 °F 29.76 in SW 6.0 mph 16.0 mph 67 % 0.00 in 0 W/m2
19:30 42.2 °F 31.6 °F 29.76 in SW 6.0 mph 6.0 mph 66 % 0.00 in 0 W/m2
19:35 42.1 °F 31.6 °F 29.76 in SSW 5.0 mph 16.0 mph 66 % 0.00 in 0 W/m2
19:45 41.7 °F 31.5 °F 29.76 in SSW 2.0 mph 16.0 mph 67 % 0.00 in 0 W/m2
19:50 41.6 °F 31.4 °F 29.76 in SSW 1.0 mph 16.0 mph 67 % 0.00 in 0 W/m2
19:55 41.3 °F 31.5 °F 29.76 in Calm   16.0 mph 68 % 0.00 in 0 W/m2
20:00 41.0 °F 31.6 °F 29.76 in Calm   16.0 mph 69 % 0.00 in 0 W/m2
20:10 40.4 °F 31.7 °F 29.76 in SSW 1.0 mph 1.0 mph 71 % 0.00 in 0 W/m2
20:20 40.0 °F 31.7 °F 29.75 in Calm   16.0 mph 72 % 0.00 in 0 W/m2
20:25 39.7 °F 31.4 °F 29.75 in Calm   16.0 mph 72 % 0.00 in 0 W/m2
20:30 39.4 °F 31.5 °F 29.75 in Calm   16.0 mph 73 % 0.00 in 0 W/m2
20:35 39.3 °F 31.7 °F 29.75 in SSE 1.0 mph 16.0 mph 74 % 0.00 in 0 W/m2
20:40 39.2 °F 31.6 °F 29.75 in SSE 1.0 mph 1.0 mph 74 % 0.00 in 0 W/m2
20:45 39.1 °F 31.8 °F 29.75 in Calm   16.0 mph 75 % 0.00 in 0 W/m2
20:55 39.0 °F 31.7 °F 29.75 in Calm   16.0 mph 75 % 0.00 in 0 W/m2
21:05 39.2 °F 31.9 °F 29.74 in SSW 2.0 mph 16.0 mph 75 % 0.00 in 0 W/m2
21:10 39.5 °F 32.2 °F 29.74 in SSW 3.0 mph 16.0 mph 75 % 0.00 in 0 W/m2
21:15 39.7 °F 32.1 °F 29.74 in SSW 3.0 mph 16.0 mph 74 % 0.00 in 0 W/m2
21:20 40.0 °F 32.4 °F 29.74 in South 4.0 mph 16.0 mph 74 % 0.00 in 0 W/m2
21:30 40.6 °F 32.6 °F 29.74 in SSW 4.0 mph 4.0 mph 73 % 0.00 in 0 W/m2
21:35 40.7 °F 32.4 °F 29.74 in SW 4.0 mph 16.0 mph 72 % 0.00 in 0 W/m2
21:40 40.9 °F 32.6 °F 29.74 in South 5.0 mph 5.0 mph 72 % 0.00 in 0 W/m2
21:45 40.9 °F 32.6 °F 29.74 in SSW 4.0 mph 16.0 mph 72 % 0.00 in 0 W/m2
21:50 40.9 °F 32.6 °F 29.74 in SSW 4.0 mph 16.0 mph 72 % 0.00 in 0 W/m2
22:00 41.0 °F 32.7 °F 29.73 in SSW 5.0 mph 5.0 mph 72 % 0.00 in 0 W/m2
22:05 40.9 °F 32.6 °F 29.73 in South 5.0 mph 16.0 mph 72 % 0.00 in 0 W/m2
22:10 41.1 °F 32.8 °F 29.73 in SSW 6.0 mph 6.0 mph 72 % 0.00 in 0 W/m2
22:15 41.2 °F 33.2 °F 29.73 in SW 6.0 mph 9.0 mph 73 % 0.00 in 0 W/m2
22:20 41.4 °F 33.4 °F 29.73 in SW 7.0 mph 7.0 mph 73 % 0.00 in 0 W/m2
22:30 41.8 °F 34.1 °F 29.73 in South 9.0 mph 9.0 mph 74 % 0.00 in 0 W/m2
22:35 42.1 °F 34.7 °F 29.72 in SSW 9.0 mph 16.0 mph 75 % 0.00 in 0 W/m2
22:45 42.5 °F 35.1 °F 29.71 in SW 8.0 mph 16.0 mph 75 % 0.00 in 0 W/m2
22:50 42.4 °F 35.0 °F 29.71 in SW 8.0 mph 16.0 mph 75 % 0.00 in 0 W/m2
22:55 42.4 °F 35.4 °F 29.71 in SW 8.0 mph 16.0 mph 76 % 0.00 in 0 W/m2
23:00 42.3 °F 35.3 °F 29.71 in SW 8.0 mph 16.0 mph 76 % 0.00 in 0 W/m2
23:10 42.1 °F 35.4 °F 29.70 in SW 8.0 mph 16.0 mph 77 % 0.00 in 0 W/m2
23:15 42.3 °F 35.9 °F 29.70 in SW 8.0 mph 16.0 mph 78 % 0.00 in 0 W/m2
23:20 42.2 °F 35.8 °F 29.71 in SSW 7.0 mph 16.0 mph 78 % 0.00 in 0 W/m2
23:25 42.1 °F 36.1 °F 29.71 in SSW 6.0 mph 16.0 mph 79 % 0.00 in 0 W/m2
23:30 42.1 °F 36.1 °F 29.71 in SW 7.0 mph 16.0 mph 79 % 0.00 in 0 W/m2
23:35 42.3 °F 36.6 °F 29.71 in SSW 9.0 mph 16.0 mph 80 % 0.00 in 0 W/m2
23:45 42.5 °F 36.8 °F 29.71 in SW 9.0 mph 16.0 mph 80 % 0.00 in 0 W/m2
23:50 42.4 °F 36.7 °F 29.71 in SSW 8.0 mph 16.0 mph 80 % 0.00 in 0 W/m2
23:55 42.4 °F 37.0 °F 29.70 in SW 8.0 mph 16.0 mph 81 % 0.00 in 0 W/m2
Delerius-Weather
Compliments of Weather Underground - 2 mb

Data updates at regular intervals.